Emmonak, Alaska
Current Conditions -  °F | °C
As of 9:36 PM on Tuesday 25 Nov 2014 (Local Time) from PAEM Reporting Station
Overcast Overcast  
Wind Chill: 21°   Ceiling: 600
Heat Index: 30°   Visibility: 10mi
Dew Point: 27°   Wind: 12mph
Humidity: 86%   Direction: 130°SE
Pressure: 30.16"   Gusts: NA
Location:  62.78°N, 164.53°W
Report Text: PAEM 260636Z AUTO 13010KT 10SM OVC006 M01/M03 A3016 RMK AO1
Loading
Personal Weather Stations






























Interactive Weather Map New forecast layout! Learn more

10-Day Weather Forecast

Advertisements
Track Severe Weather on mobile